createdAt,value
2023-11-11T00:01:59.070Z,47.40
2023-11-11T00:04:26.586Z,47.03
2023-11-11T00:06:53.708Z,47.71
2023-11-11T00:09:20.789Z,47.88
2023-11-11T00:11:49.335Z,47.48
2023-11-11T00:14:18.142Z,47.70
2023-11-11T00:16:45.461Z,47.73
2023-11-11T00:19:12.628Z,47.98
2023-11-11T00:21:39.909Z,47.67
2023-11-11T00:24:07.495Z,47.73
2023-11-11T00:26:34.932Z,47.93
2023-11-11T00:29:03.379Z,48.04
2023-11-11T00:31:30.618Z,47.70
2023-11-11T00:33:57.611Z,47.93
2023-11-11T00:36:24.695Z,47.91
2023-11-11T00:38:51.714Z,47.66
2023-11-11T00:41:18.864Z,47.59
2023-11-11T00:43:45.811Z,47.78
2023-11-11T00:46:14.418Z,47.78
2023-11-11T00:48:41.683Z,47.62
2023-11-11T00:51:09.031Z,47.77
2023-11-11T00:53:36.139Z,47.46
2023-11-11T00:56:03.966Z,47.58
2023-11-11T00:58:31.168Z,47.66
2023-11-11T01:00:58.302Z,47.33
2023-11-11T01:03:26.935Z,47.74
2023-11-11T01:05:54.052Z,47.45
2023-11-11T01:08:21.355Z,48.07
2023-11-11T01:10:48.473Z,47.78
2023-11-11T01:13:15.631Z,47.88
2023-11-11T01:15:42.756Z,47.79
2023-11-11T01:18:09.953Z,47.89
2023-11-11T01:20:38.608Z,48.13
2023-11-11T01:23:05.740Z,48.36
2023-11-11T01:25:32.940Z,47.92
2023-11-11T01:28:00.059Z,47.98
2023-11-11T01:30:27.106Z,47.89
2023-11-11T01:32:54.354Z,48.12
2023-11-11T01:35:21.408Z,48.22
2023-11-11T01:37:49.868Z,48.16
2023-11-11T01:40:17.126Z,47.93
2023-11-11T01:42:44.142Z,48.20
2023-11-11T01:45:11.314Z,47.60
2023-11-11T01:47:38.860Z,47.61
2023-11-11T01:50:07.641Z,47.68
2023-11-11T01:52:35.222Z,47.01
2023-11-11T01:55:06.793Z,47.05
2023-11-11T01:57:34.057Z,47.38
2023-11-11T02:00:03.078Z,47.12
2023-11-11T02:02:30.162Z,47.43
2023-11-11T02:04:57.566Z,47.57
2023-11-11T02:07:24.782Z,47.77
2023-11-11T02:09:51.912Z,47.73
2023-11-11T02:12:20.876Z,47.38
2023-11-11T02:14:48.637Z,49.93
2023-11-11T02:17:15.689Z,52.90
2023-11-11T02:19:42.607Z,49.40
2023-11-11T02:22:09.823Z,47.65
2023-11-11T02:24:41.332Z,48.90
2023-11-11T02:27:08.420Z,49.75
2023-11-11T02:29:44.488Z,50.93
2023-11-11T02:32:11.578Z,49.69
2023-11-11T02:34:38.716Z,47.01
2023-11-11T02:37:05.914Z,50.08
2023-11-11T02:39:33.032Z,49.21
2023-11-11T02:42:01.376Z,49.51
2023-11-11T02:44:28.280Z,47.80
2023-11-11T02:46:55.351Z,48.11
2023-11-11T02:49:22.326Z,47.68
2023-11-11T02:51:49.346Z,46.91
2023-11-11T02:54:16.528Z,47.38
2023-11-11T02:56:43.592Z,46.96
2023-11-11T02:59:12.149Z,46.67
2023-11-11T03:01:39.265Z,45.79
2023-11-11T03:04:06.942Z,46.37
2023-11-11T03:06:34.464Z,46.03
2023-11-11T03:09:01.543Z,45.14
2023-11-11T03:11:28.781Z,44.13
2023-11-11T03:13:55.767Z,44.61
2023-11-11T03:16:33.506Z,43.90
2023-11-11T03:19:00.584Z,44.30
2023-11-11T03:21:27.640Z,45.97
2023-11-11T03:23:54.641Z,45.21
2023-11-11T03:26:21.676Z,44.44
2023-11-11T03:28:48.679Z,43.32
2023-11-11T03:31:15.781Z,44.77
2023-11-11T03:33:44.296Z,44.14
2023-11-11T03:36:11.339Z,44.99
2023-11-11T03:38:38.314Z,44.73
2023-11-11T03:41:05.332Z,44.08
2023-11-11T03:43:32.262Z,44.68
2023-11-11T03:45:59.325Z,44.58
2023-11-11T03:48:26.441Z,44.50
2023-11-11T03:50:54.899Z,44.54
2023-11-11T03:53:21.819Z,44.42
2023-11-11T03:55:49.195Z,44.15
2023-11-11T03:58:16.717Z,44.11
2023-11-11T04:00:43.862Z,44.30
2023-11-11T04:03:11.047Z,44.06
2023-11-11T04:05:38.251Z,44.12
2023-11-11T04:08:06.782Z,44.09
2023-11-11T04:10:33.850Z,44.02
2023-11-11T04:13:02.712Z,44.10
2023-11-11T04:15:29.760Z,44.23
2023-11-11T04:17:56.802Z,44.67
2023-11-11T04:20:23.828Z,43.20
2023-11-11T04:22:50.832Z,44.08
2023-11-11T04:25:19.371Z,43.99
2023-11-11T04:27:46.453Z,43.67
2023-11-11T04:30:13.675Z,43.40
2023-11-11T04:32:41.692Z,43.73
2023-11-11T04:35:08.925Z,42.68
2023-11-11T04:37:36.063Z,42.93
2023-11-11T04:40:03.141Z,42.32
2023-11-11T04:42:31.610Z,43.60
2023-11-11T04:44:58.591Z,43.43
2023-11-11T04:47:25.543Z,43.13
2023-11-11T04:49:52.558Z,43.53
2023-11-11T04:52:20.007Z,43.31
2023-11-11T04:54:46.953Z,43.21
2023-11-11T04:57:14.038Z,43.24
2023-11-11T04:59:42.412Z,44.04
2023-11-11T05:02:09.423Z,44.09
2023-11-11T05:04:36.472Z,43.66
2023-11-11T05:07:03.728Z,44.02
2023-11-11T05:09:30.833Z,44.07
2023-11-11T05:11:58.089Z,43.03
2023-11-11T05:14:26.430Z,43.60
2023-11-11T05:16:54.902Z,43.16
2023-11-11T05:19:22.330Z,43.07
2023-11-11T05:21:49.486Z,42.44
2023-11-11T05:24:16.781Z,42.92
2023-11-11T05:26:43.956Z,43.32
2023-11-11T05:29:11.021Z,43.27
2023-11-11T05:31:38.217Z,42.41
2023-11-11T05:34:06.798Z,43.14
2023-11-11T05:36:34.100Z,43.92
2023-11-11T05:39:01.239Z,43.50
2023-11-11T05:41:28.450Z,43.94
2023-11-11T05:43:55.543Z,43.71
2023-11-11T05:46:22.576Z,43.14
2023-11-11T05:48:49.610Z,43.29
2023-11-11T05:51:18.177Z,42.90
2023-11-11T05:53:45.209Z,43.81
2023-11-11T05:56:12.155Z,41.94
2023-11-11T05:58:39.066Z,42.50
2023-11-11T06:01:06.763Z,43.54
2023-11-11T06:03:34.161Z,42.98
2023-11-11T06:06:02.385Z,42.73
2023-11-11T06:08:31.033Z,43.08
2023-11-11T06:10:58.070Z,43.89
2023-11-11T06:13:25.035Z,42.28
2023-11-11T06:15:52.406Z,43.63
2023-11-11T06:18:19.487Z,43.53
2023-11-11T06:20:46.442Z,44.05
2023-11-11T06:25:44.822Z,44.19
2023-11-11T06:28:11.849Z,44.44
2023-11-11T06:30:38.884Z,44.15
2023-11-11T06:33:06.170Z,43.88
2023-11-11T06:35:34.546Z,42.84
2023-11-11T06:38:01.581Z,44.19
2023-11-11T06:40:28.877Z,43.07
2023-11-11T06:42:57.548Z,43.64
2023-11-11T06:45:24.787Z,43.14
2023-11-11T06:47:52.159Z,43.88
2023-11-11T06:50:19.546Z,43.74
2023-11-11T06:52:46.772Z,43.97
2023-11-11T06:55:14.208Z,43.66
2023-11-11T06:57:41.277Z,43.32
2023-11-11T07:00:10.816Z,43.69
2023-11-11T07:02:37.790Z,44.45
2023-11-11T07:05:05.384Z,43.59
2023-11-11T07:07:32.381Z,44.14
2023-11-11T07:09:59.340Z,43.99
2023-11-11T07:12:26.360Z,43.09
2023-11-11T07:14:53.393Z,43.84
2023-11-11T07:17:21.772Z,43.98
2023-11-11T07:19:48.725Z,43.21
2023-11-11T07:24:45.618Z,43.86
2023-11-11T07:27:12.633Z,43.42
2023-11-11T07:29:39.790Z,43.77
2023-11-11T07:32:07.294Z,43.21
2023-11-11T07:34:35.610Z,42.65
2023-11-11T07:37:02.563Z,43.50
2023-11-11T07:39:29.571Z,42.46
2023-11-11T07:41:56.692Z,43.28
2023-11-11T07:44:23.656Z,43.23
2023-11-11T07:46:50.713Z,43.03
2023-11-11T07:49:17.628Z,43.04
2023-11-11T07:51:46.045Z,41.83
2023-11-11T07:54:13.021Z,42.93
2023-11-11T07:56:40.004Z,43.51
2023-11-11T07:59:07.128Z,43.08
2023-11-11T08:01:34.436Z,43.58
2023-11-11T08:04:01.490Z,44.10
2023-11-11T08:06:28.496Z,44.17
2023-11-11T08:08:57.093Z,43.39
2023-11-11T08:11:24.548Z,43.53
2023-11-11T08:13:51.758Z,44.05
2023-11-11T08:16:19.141Z,43.81
2023-11-11T08:18:48.436Z,43.68
2023-11-11T08:21:16.331Z,43.97
2023-11-11T08:23:43.253Z,43.25
2023-11-11T08:26:11.582Z,44.23
2023-11-11T08:28:38.615Z,43.87
2023-11-11T08:31:05.755Z,43.36
2023-11-11T08:33:32.797Z,43.54
2023-11-11T08:35:59.909Z,43.89
2023-11-11T08:38:27.159Z,43.72
2023-11-11T08:40:54.331Z,43.97
2023-11-11T08:43:22.728Z,43.79
2023-11-11T08:45:49.761Z,44.16
2023-11-11T08:48:16.941Z,43.99
2023-11-11T08:50:43.952Z,43.66
2023-11-11T08:53:10.989Z,41.84
2023-11-11T08:55:37.935Z,42.45
2023-11-11T08:58:04.940Z,41.81
2023-11-11T09:00:33.346Z,42.43
2023-11-11T09:03:00.454Z,41.66
2023-11-11T09:05:27.753Z,42.58
2023-11-11T09:07:54.777Z,42.57
2023-11-11T09:10:21.920Z,42.81
2023-11-11T09:12:48.998Z,42.25
2023-11-11T09:15:16.460Z,41.79
2023-11-11T09:17:44.917Z,41.85
2023-11-11T09:20:12.367Z,41.92
2023-11-11T09:22:39.456Z,41.44
2023-11-11T09:25:07.397Z,42.34
2023-11-11T09:27:34.586Z,41.52
2023-11-11T09:30:01.747Z,41.88
2023-11-11T09:32:28.739Z,41.80
2023-11-11T09:34:57.130Z,42.03
2023-11-11T09:37:24.071Z,42.82
2023-11-11T09:39:51.091Z,40.50
2023-11-11T09:42:18.328Z,41.33
2023-11-11T09:47:23.254Z,42.10
2023-11-11T09:49:50.339Z,41.42
2023-11-11T09:52:20.736Z,40.92
2023-11-11T09:54:48.382Z,40.97
2023-11-11T09:57:19.754Z,41.17
2023-11-11T09:59:49.834Z,40.17
2023-11-11T10:02:17.763Z,40.80
2023-11-11T10:04:44.809Z,41.72
2023-11-11T10:07:12.399Z,42.08
2023-11-11T10:09:41.088Z,41.05
2023-11-11T10:12:09.122Z,41.13
2023-11-11T10:14:39.290Z,41.04
2023-11-11T10:17:09.643Z,38.99
2023-11-11T10:19:50.945Z,41.10
2023-11-11T10:22:24.351Z,39.93
2023-11-11T10:24:52.800Z,40.63
2023-11-11T10:27:19.833Z,40.68
2023-11-11T10:29:47.965Z,41.21
2023-11-11T10:32:15.009Z,39.84
2023-11-11T10:34:42.411Z,41.43
2023-11-11T10:37:09.539Z,42.07
2023-11-11T10:39:36.950Z,40.43
2023-11-11T10:42:05.941Z,41.71
2023-11-11T10:44:32.990Z,39.87
2023-11-11T10:47:00.328Z,40.83
2023-11-11T10:49:28.035Z,41.54
2023-11-11T10:51:56.617Z,41.61
2023-11-11T10:54:25.740Z,41.48
2023-11-11T10:56:53.734Z,40.17
2023-11-11T10:59:23.542Z,42.00
2023-11-11T11:01:50.827Z,40.74
2023-11-11T11:04:28.485Z,39.39
2023-11-11T11:07:04.356Z,38.39
2023-11-11T11:09:41.222Z,38.05
2023-11-11T11:12:19.966Z,40.19
2023-11-11T11:14:50.545Z,38.98
2023-11-11T11:17:17.817Z,38.20
2023-11-11T11:19:54.782Z,39.60
2023-11-11T11:22:24.807Z,39.45
2023-11-11T11:24:51.852Z,40.31
2023-11-11T11:27:20.267Z,40.33
2023-11-11T11:29:48.857Z,39.33
2023-11-11T11:32:23.699Z,40.51
2023-11-11T11:35:25.816Z,41.58
2023-11-11T11:37:54.938Z,39.88
2023-11-11T11:40:23.558Z,38.42
2023-11-11T11:42:50.975Z,40.38
2023-11-11T11:45:29.845Z,38.04
2023-11-11T11:47:57.380Z,36.12
2023-11-11T11:50:24.487Z,36.65
2023-11-11T11:52:51.474Z,36.71
2023-11-11T11:55:18.674Z,36.84
2023-11-11T11:57:55.198Z,38.81
2023-11-11T12:00:23.794Z,37.43
2023-11-11T12:02:53.522Z,37.26
2023-11-11T12:05:21.149Z,37.41
2023-11-11T12:07:52.453Z,37.53
2023-11-11T12:10:19.674Z,36.74
2023-11-11T12:12:46.753Z,41.82
2023-11-11T12:15:15.974Z,37.57
2023-11-11T12:17:45.575Z,38.15
2023-11-11T12:20:12.843Z,38.54
2023-11-11T12:22:43.206Z,37.87
2023-11-11T12:25:10.663Z,38.03
2023-11-11T12:27:37.827Z,39.79
2023-11-11T12:30:18.305Z,37.25
2023-11-11T12:33:02.058Z,38.61
2023-11-11T12:35:29.852Z,37.04
2023-11-11T12:37:57.087Z,36.88
2023-11-11T12:40:31.187Z,36.71
2023-11-11T12:42:58.364Z,37.14
2023-11-11T12:45:25.447Z,38.11
2023-11-11T12:47:54.568Z,37.74
2023-11-11T12:50:31.474Z,37.25
2023-11-11T12:53:05.922Z,37.72
2023-11-11T12:55:32.918Z,37.32
2023-11-11T12:58:22.010Z,37.04
2023-11-11T13:00:50.160Z,35.76
2023-11-11T13:03:23.161Z,38.31
2023-11-11T13:05:50.561Z,36.59
2023-11-11T13:08:17.508Z,37.95
2023-11-11T13:10:45.728Z,37.32
2023-11-11T13:13:13.768Z,38.26
2023-11-11T13:15:41.420Z,37.97
2023-11-11T13:18:08.509Z,36.59
2023-11-11T13:20:37.045Z,37.72
2023-11-11T13:23:03.999Z,38.92
2023-11-11T13:25:31.041Z,38.79
2023-11-11T13:27:58.029Z,37.47
2023-11-11T13:30:24.987Z,38.19
2023-11-11T13:32:52.149Z,36.62
2023-11-11T13:35:19.247Z,37.50
2023-11-11T13:37:47.893Z,35.52
2023-11-11T13:40:14.908Z,35.40
2023-11-11T13:42:41.856Z,36.01
2023-11-11T13:45:09.496Z,35.12
2023-11-11T13:47:36.563Z,35.88
2023-11-11T13:50:03.900Z,35.76
2023-11-11T13:52:30.944Z,36.95
2023-11-11T13:54:59.384Z,36.50
2023-11-11T13:57:26.358Z,36.14
2023-11-11T13:59:53.346Z,37.10
2023-11-11T14:02:20.402Z,36.84
2023-11-11T14:04:47.660Z,37.53
2023-11-11T14:07:14.909Z,37.22
2023-11-11T14:09:44.683Z,37.18
2023-11-11T14:12:14.988Z,38.34
2023-11-11T14:14:42.855Z,38.17
2023-11-11T14:17:09.904Z,37.33
2023-11-11T14:19:37.081Z,37.83
2023-11-11T14:22:04.687Z,37.03
2023-11-11T14:24:31.741Z,38.18
2023-11-11T14:26:58.834Z,38.20
2023-11-11T14:29:27.755Z,39.12
2023-11-11T14:31:54.889Z,38.77
2023-11-11T14:34:21.968Z,39.18
2023-11-11T14:36:49.188Z,38.69
2023-11-11T14:39:16.183Z,40.01
2023-11-11T14:41:43.202Z,39.00
2023-11-11T14:44:10.358Z,39.73
2023-11-11T14:46:38.771Z,41.55
2023-11-11T14:49:06.112Z,40.42
2023-11-11T14:51:33.200Z,40.07
2023-11-11T14:54:00.249Z,39.99
2023-11-11T14:56:27.311Z,41.10
2023-11-11T14:58:54.307Z,40.97
2023-11-11T15:01:21.360Z,40.44
2023-11-11T15:03:49.960Z,40.51
2023-11-11T15:06:17.119Z,40.33
2023-11-11T15:08:44.108Z,40.35
2023-11-11T15:11:11.250Z,40.55
2023-11-11T15:13:38.209Z,40.94
2023-11-11T15:16:06.129Z,40.78
2023-11-11T15:18:33.239Z,40.06
2023-11-11T15:21:01.643Z,40.37
2023-11-11T15:23:28.762Z,40.72
2023-11-11T15:25:55.762Z,40.53
2023-11-11T15:28:22.837Z,40.26
2023-11-11T15:30:50.137Z,41.31
2023-11-11T15:33:17.328Z,41.15
2023-11-11T15:35:44.645Z,40.65
2023-11-11T15:38:13.066Z,41.65
2023-11-11T15:40:40.193Z,41.44
2023-11-11T15:43:07.258Z,41.79
2023-11-11T15:45:34.435Z,41.33
2023-11-11T15:48:01.438Z,41.20
2023-11-11T15:50:28.410Z,41.71
2023-11-11T15:52:55.438Z,41.64
2023-11-11T15:55:23.981Z,41.00
2023-11-11T15:57:50.990Z,40.94
2023-11-11T16:00:18.354Z,40.64
2023-11-11T16:02:45.398Z,40.70
2023-11-11T16:05:12.576Z,40.88
2023-11-11T16:07:39.667Z,40.97
2023-11-11T16:10:07.449Z,40.92
2023-11-11T16:12:35.819Z,40.70
2023-11-11T16:15:02.853Z,40.44
2023-11-11T16:17:30.039Z,39.99
2023-11-11T16:19:59.162Z,40.56
2023-11-11T16:22:26.386Z,40.76
2023-11-11T16:24:53.348Z,40.00
2023-11-11T16:27:20.323Z,40.80
2023-11-11T16:29:48.737Z,40.16
2023-11-11T16:32:15.699Z,40.56
2023-11-11T16:34:42.747Z,40.23
2023-11-11T16:37:09.792Z,40.19
2023-11-11T16:39:42.144Z,41.02
2023-11-11T16:42:09.159Z,41.14
2023-11-11T16:44:36.558Z,40.56
2023-11-11T16:47:05.540Z,41.63
2023-11-11T16:49:33.155Z,41.33
2023-11-11T16:52:00.430Z,42.08
2023-11-11T16:54:27.468Z,41.17
2023-11-11T16:56:54.558Z,41.69
2023-11-11T16:59:21.796Z,41.67
2023-11-11T17:01:49.137Z,41.75
2023-11-11T17:04:17.821Z,41.65
2023-11-11T17:06:44.913Z,41.60
2023-11-11T17:09:12.012Z,41.30
2023-11-11T17:11:42.769Z,41.64
2023-11-11T17:14:10.064Z,41.48
2023-11-11T17:16:38.159Z,41.57
2023-11-11T17:19:05.326Z,41.87
2023-11-11T17:21:34.072Z,41.63
2023-11-11T17:24:01.258Z,41.91
2023-11-11T17:26:28.767Z,42.01
2023-11-11T17:28:55.857Z,41.74
2023-11-11T17:31:23.010Z,41.71
2023-11-11T17:33:56.837Z,41.73
2023-11-11T17:36:26.278Z,41.87
2023-11-11T17:38:55.226Z,42.05
2023-11-11T17:41:22.538Z,42.67
2023-11-11T17:43:49.667Z,42.41
2023-11-11T17:46:20.475Z,41.87
2023-11-11T17:48:47.576Z,42.42
2023-11-11T17:51:15.755Z,41.98
2023-11-11T17:53:42.909Z,42.22
2023-11-11T17:56:20.673Z,42.15
2023-11-11T17:58:47.687Z,42.33
2023-11-11T18:01:14.957Z,42.73
2023-11-11T18:03:42.219Z,42.29
2023-11-11T18:06:09.264Z,42.39
2023-11-11T18:08:36.356Z,42.40
2023-11-11T18:11:06.789Z,42.04
2023-11-11T18:13:37.258Z,42.44
2023-11-11T18:16:05.187Z,42.38
2023-11-11T18:18:32.259Z,42.42
2023-11-11T18:20:59.390Z,42.89
2023-11-11T18:23:26.490Z,42.71
2023-11-11T18:25:53.664Z,42.56
2023-11-11T18:28:20.675Z,42.55
2023-11-11T18:30:49.049Z,42.85
2023-11-11T18:33:16.194Z,42.73
2023-11-11T18:35:43.374Z,42.98
2023-11-11T18:38:10.477Z,42.89
2023-11-11T18:40:37.498Z,43.12
2023-11-11T18:43:04.590Z,43.29
2023-11-11T18:45:31.741Z,43.03
2023-11-11T18:48:00.123Z,43.29
2023-11-11T18:50:27.320Z,43.35
2023-11-11T18:52:54.426Z,43.79
2023-11-11T18:55:21.447Z,43.76
2023-11-11T18:57:48.469Z,43.91
2023-11-11T19:00:16.372Z,43.69
2023-11-11T19:02:43.410Z,44.38
2023-11-11T19:05:12.025Z,44.37
2023-11-11T19:07:39.279Z,44.08
2023-11-11T19:10:07.263Z,44.02
2023-11-11T19:12:34.383Z,44.05
2023-11-11T19:15:01.434Z,44.27
2023-11-11T19:17:28.541Z,44.16
2023-11-11T19:19:55.742Z,44.02
2023-11-11T19:22:24.786Z,44.35
2023-11-11T19:24:52.599Z,43.99
2023-11-11T19:27:19.689Z,44.53
2023-11-11T19:29:46.592Z,44.48
2023-11-11T19:32:13.677Z,44.45
2023-11-11T19:34:40.746Z,44.60
2023-11-11T19:37:07.813Z,44.57
2023-11-11T19:39:36.305Z,44.38
2023-11-11T19:42:03.649Z,44.52
2023-11-11T19:44:30.674Z,44.65
2023-11-11T19:46:57.627Z,44.46
2023-11-11T19:49:24.604Z,44.30
2023-11-11T19:51:51.599Z,44.86
2023-11-11T19:54:18.631Z,44.64
2023-11-11T19:56:47.146Z,44.83
2023-11-11T19:59:14.243Z,44.91
2023-11-11T20:01:41.623Z,44.41
2023-11-11T20:04:08.737Z,44.99
2023-11-11T20:06:35.802Z,44.70
2023-11-11T20:09:03.630Z,45.04
2023-11-11T20:11:30.799Z,44.56
2023-11-11T20:13:59.451Z,44.95
2023-11-11T20:16:26.583Z,45.11
2023-11-11T20:18:53.820Z,44.66
2023-11-11T20:21:20.801Z,44.54
2023-11-11T20:23:47.734Z,44.76
2023-11-11T20:26:14.839Z,44.48
2023-11-11T20:28:41.935Z,44.42
2023-11-11T20:31:10.366Z,44.55
2023-11-11T20:33:37.301Z,44.73
2023-11-11T20:36:06.691Z,44.86
2023-11-11T20:38:33.720Z,44.52
2023-11-11T20:41:00.760Z,44.29
2023-11-11T20:43:28.329Z,44.68
2023-11-11T20:45:55.531Z,44.88
2023-11-11T20:48:24.052Z,44.93
2023-11-11T20:50:51.326Z,44.79
2023-11-11T20:53:18.464Z,44.50
2023-11-11T20:55:45.564Z,44.26
2023-11-11T20:58:12.685Z,44.04
2023-11-11T21:00:39.932Z,44.28
2023-11-11T21:03:07.231Z,43.72
2023-11-11T21:05:35.765Z,43.85
2023-11-11T21:08:02.815Z,43.70
2023-11-11T21:10:29.791Z,43.80
2023-11-11T21:12:56.942Z,43.97
2023-11-11T21:15:23.943Z,44.35
2023-11-11T21:17:50.974Z,44.08
2023-11-11T21:20:18.104Z,43.32
2023-11-11T21:22:47.092Z,43.83
2023-11-11T21:25:14.345Z,43.79
2023-11-11T21:27:41.529Z,43.62
2023-11-11T21:30:09.924Z,44.03
2023-11-11T21:32:37.123Z,44.05
2023-11-11T21:35:04.831Z,44.17
2023-11-11T21:37:32.000Z,43.64
2023-11-11T21:40:00.359Z,44.10
2023-11-11T21:42:27.401Z,43.13
2023-11-11T21:44:54.728Z,43.24
2023-11-11T21:47:22.601Z,43.74
2023-11-11T21:49:49.727Z,43.26
2023-11-11T21:52:16.716Z,44.09
2023-11-11T21:54:43.920Z,44.14
2023-11-11T21:57:12.447Z,43.90
2023-11-11T21:59:39.461Z,44.01
2023-11-11T22:02:06.598Z,43.54
2023-11-11T22:04:33.954Z,44.03
2023-11-11T22:07:01.079Z,43.83
2023-11-11T22:09:28.087Z,43.74
2023-11-11T22:11:55.104Z,44.14
2023-11-11T22:14:23.441Z,44.43
2023-11-11T22:16:50.688Z,44.24
2023-11-11T22:19:17.698Z,44.63
2023-11-11T22:21:44.753Z,44.53
2023-11-11T22:24:11.730Z,44.24
2023-11-11T22:26:38.695Z,44.86
2023-11-11T22:29:05.886Z,45.11
2023-11-11T22:31:34.368Z,44.95
2023-11-11T22:34:01.405Z,44.61
2023-11-11T22:36:28.382Z,44.79
2023-11-11T22:38:55.522Z,44.93
2023-11-11T22:41:22.512Z,44.89
2023-11-11T22:43:53.278Z,44.51
2023-11-11T22:46:21.367Z,44.82
2023-11-11T22:48:49.887Z,44.79
2023-11-11T22:51:16.951Z,44.75
2023-11-11T22:53:43.982Z,44.84
2023-11-11T22:56:11.204Z,44.64
2023-11-11T22:58:38.439Z,44.27
2023-11-11T23:01:05.461Z,44.44
2023-11-11T23:03:32.833Z,45.16
2023-11-11T23:06:01.305Z,45.20
2023-11-11T23:08:28.657Z,44.83
2023-11-11T23:10:55.741Z,44.67
2023-11-11T23:13:23.213Z,45.03
2023-11-11T23:15:50.235Z,45.33
2023-11-11T23:18:17.492Z,45.07
2023-11-11T23:20:44.755Z,45.25
2023-11-11T23:23:13.346Z,45.28
2023-11-11T23:25:40.487Z,45.66
2023-11-11T23:28:07.752Z,44.88
2023-11-11T23:30:34.904Z,44.33
2023-11-11T23:33:02.248Z,44.89
2023-11-11T23:35:29.684Z,45.16
2023-11-11T23:37:56.797Z,45.07
2023-11-11T23:40:25.157Z,45.11
2023-11-11T23:42:52.282Z,45.04
2023-11-11T23:45:19.552Z,44.84
2023-11-11T23:47:47.964Z,44.78
2023-11-11T23:50:15.201Z,44.55
2023-11-11T23:52:42.483Z,44.98
2023-11-11T23:55:09.896Z,44.90
2023-11-11T23:57:38.568Z,44.82
